createdAt,value
2022-08-22T00:01:53.583Z,3.38
2022-08-22T00:02:44.477Z,2.75
2022-08-22T00:02:47.573Z,1.70
2022-08-22T00:02:56.360Z,1.52
2022-08-22T00:02:59.073Z,3.08
2022-08-22T00:03:00.129Z,3.00
2022-08-22T00:04:33.460Z,3.53
2022-08-22T00:07:41.944Z,3.78
2022-08-22T00:10:25.612Z,3.65
2022-08-22T00:13:15.692Z,3.67
2022-08-22T00:15:51.537Z,3.80
2022-08-22T00:18:29.568Z,3.88
2022-08-22T00:20:57.674Z,4.00
2022-08-22T00:23:32.238Z,3.67
2022-08-22T00:26:03.091Z,3.80
2022-08-22T00:28:32.223Z,3.80
2022-08-22T00:31:25.994Z,3.80
2022-08-22T00:34:03.597Z,3.90
2022-08-22T00:37:04.867Z,4.18
2022-08-22T00:39:47.042Z,4.13
2022-08-22T00:42:37.519Z,3.97
2022-08-22T00:45:24.496Z,4.32
2022-08-22T00:47:56.768Z,3.58
2022-08-22T00:50:43.779Z,4.03
2022-08-22T00:53:30.826Z,3.70
2022-08-22T00:56:25.201Z,3.97
2022-08-22T00:59:23.896Z,4.60
2022-08-22T01:02:13.112Z,4.50
2022-08-22T01:04:50.059Z,4.00
2022-08-22T01:07:38.346Z,4.20
2022-08-22T01:10:41.647Z,3.80
2022-08-22T01:13:33.148Z,3.85
2022-08-22T01:16:16.682Z,4.20
2022-08-22T01:18:48.190Z,4.03
2022-08-22T01:21:24.281Z,3.83
2022-08-22T01:24:26.867Z,4.28
2022-08-22T01:27:17.507Z,4.32
2022-08-22T01:30:21.013Z,4.38
2022-08-22T01:33:26.768Z,4.28
2022-08-22T01:35:53.897Z,3.83
2022-08-22T01:38:35.777Z,4.25
2022-08-22T01:41:14.182Z,4.10
2022-08-22T01:44:03.593Z,4.57
2022-08-22T01:46:45.572Z,4.50
2022-08-22T01:49:23.836Z,4.60
2022-08-22T01:51:54.483Z,4.75
2022-08-22T01:54:42.890Z,4.80
2022-08-22T01:57:11.062Z,4.90
2022-08-22T01:59:43.834Z,5.22
2022-08-22T02:02:51.297Z,4.40
2022-08-22T02:05:25.199Z,4.53
2022-08-22T02:08:28.288Z,4.35
2022-08-22T02:11:04.375Z,4.65
2022-08-22T02:13:57.028Z,4.40
2022-08-22T02:16:37.489Z,4.75
2022-08-22T02:19:29.783Z,4.68
2022-08-22T02:22:18.150Z,4.95
2022-08-22T02:25:00.335Z,5.05
2022-08-22T02:27:46.966Z,5.00
2022-08-22T02:30:20.143Z,4.95
2022-08-22T02:33:10.250Z,4.88
2022-08-22T02:35:40.201Z,5.30
2022-08-22T02:38:27.192Z,4.65
2022-08-22T02:40:54.585Z,5.07
2022-08-22T02:43:35.919Z,5.80
2022-08-22T02:46:34.290Z,5.25
2022-08-22T02:49:09.073Z,5.20
2022-08-22T02:51:58.437Z,5.28
2022-08-22T02:54:50.875Z,5.20
2022-08-22T02:57:39.470Z,5.38
2022-08-22T03:00:30.748Z,5.60
2022-08-22T03:03:02.351Z,5.55
2022-08-22T03:05:40.509Z,5.72
2022-08-22T03:08:24.991Z,4.97
2022-08-22T03:11:23.139Z,5.78
2022-08-22T03:14:01.446Z,5.05
2022-08-22T03:17:02.418Z,6.07
2022-08-22T03:19:48.523Z,5.93
2022-08-22T03:22:39.584Z,5.90
2022-08-22T03:25:15.028Z,5.90
2022-08-22T03:27:55.288Z,5.82
2022-08-22T03:30:33.701Z,5.85
2022-08-22T03:33:22.816Z,5.85
2022-08-22T03:35:58.402Z,6.43
2022-08-22T03:38:32.854Z,5.85
2022-08-22T03:44:01.802Z,6.53
2022-08-22T03:47:05.051Z,5.97
2022-08-22T03:49:59.845Z,6.38
2022-08-22T03:53:15.318Z,6.13
2022-08-22T03:56:13.653Z,6.03
2022-08-22T03:59:20.584Z,6.43
2022-08-22T04:01:56.707Z,5.88
2022-08-22T04:06:56.537Z,6.05
2022-08-22T04:09:43.610Z,5.53
2022-08-22T04:12:31.640Z,6.10
2022-08-22T04:15:18.667Z,6.13
2022-08-22T04:18:01.681Z,6.03
2022-08-22T04:20:56.728Z,5.93
2022-08-22T04:23:41.115Z,6.03
2022-08-22T04:26:15.456Z,6.35
2022-08-22T04:28:52.524Z,7.00
2022-08-22T04:31:27.923Z,6.35
2022-08-22T04:34:21.650Z,6.53
2022-08-22T04:36:57.833Z,6.45
2022-08-22T04:39:34.947Z,6.40
2022-08-22T04:42:31.119Z,5.95
2022-08-22T04:45:07.183Z,6.73
2022-08-22T04:47:42.880Z,6.63
2022-08-22T04:50:21.482Z,6.40
2022-08-22T04:53:08.448Z,6.82
2022-08-22T04:55:54.228Z,6.18
2022-08-22T04:58:44.470Z,6.70
2022-08-22T05:01:18.068Z,6.32
2022-08-22T05:03:57.362Z,7.20
2022-08-22T05:06:29.163Z,6.28
2022-08-22T05:09:01.720Z,7.35
2022-08-22T05:11:30.880Z,7.00
2022-08-22T05:14:02.756Z,6.68
2022-08-22T05:16:35.971Z,6.13
2022-08-22T05:19:16.915Z,6.80
2022-08-22T05:21:48.131Z,6.57
2022-08-22T05:24:23.093Z,6.47
2022-08-22T05:26:58.016Z,6.22
2022-08-22T05:29:28.766Z,6.50
2022-08-22T05:32:02.268Z,7.07
2022-08-22T05:34:35.147Z,5.90
2022-08-22T05:37:26.025Z,6.47
2022-08-22T05:40:00.056Z,7.10
2022-08-22T05:42:34.736Z,7.07
2022-08-22T05:45:06.898Z,7.68
2022-08-22T05:47:44.421Z,7.80
2022-08-22T05:50:14.279Z,8.00
2022-08-22T05:52:50.564Z,7.28
2022-08-22T05:55:22.740Z,8.27
2022-08-22T05:58:13.982Z,7.25
2022-08-22T06:00:46.114Z,7.22
2022-08-22T06:03:31.849Z,8.65
2022-08-22T06:06:06.542Z,8.55
2022-08-22T06:08:41.414Z,8.25
2022-08-22T06:11:33.646Z,7.38
2022-08-22T06:14:31.088Z,7.10
2022-08-22T06:17:15.794Z,6.88
2022-08-22T06:19:47.133Z,7.68
2022-08-22T06:22:20.067Z,8.18
2022-08-22T06:24:49.286Z,9.25
2022-08-22T06:27:23.040Z,9.68
2022-08-22T06:32:34.145Z,9.48
2022-08-22T06:35:57.335Z,10.15
2022-08-22T06:38:33.199Z,8.40
2022-08-22T06:41:06.346Z,8.93
2022-08-22T06:43:39.182Z,8.73
2022-08-22T06:46:07.564Z,8.10
2022-08-22T06:48:36.509Z,8.82
2022-08-22T06:51:07.269Z,9.60
2022-08-22T06:53:45.954Z,8.75
2022-08-22T06:56:23.351Z,7.82
2022-08-22T06:58:54.960Z,7.68
2022-08-22T07:01:26.089Z,7.47
2022-08-22T07:04:00.467Z,7.50
2022-08-22T07:06:38.619Z,7.47
2022-08-22T07:09:07.556Z,6.88
2022-08-22T07:11:39.612Z,7.80
2022-08-22T07:14:11.825Z,7.43
2022-08-22T07:16:43.002Z,7.13
2022-08-22T07:19:23.599Z,7.45
2022-08-22T07:21:50.784Z,6.45
2022-08-22T07:24:22.619Z,7.47
2022-08-22T07:26:59.587Z,6.90
2022-08-22T07:29:44.298Z,8.15
2022-08-22T07:32:13.675Z,7.10
2022-08-22T07:34:44.789Z,7.65
2022-08-22T07:37:18.516Z,6.82
2022-08-22T07:39:53.821Z,7.88
2022-08-22T07:42:34.905Z,6.90
2022-08-22T07:45:07.237Z,6.07
2022-08-22T07:47:49.230Z,6.03
2022-08-22T07:50:24.642Z,6.45
2022-08-22T07:52:55.760Z,7.32
2022-08-22T07:55:25.753Z,6.70
2022-08-22T07:57:57.883Z,6.82
2022-08-22T08:00:25.713Z,5.97
2022-08-22T08:02:56.873Z,5.97
2022-08-22T08:05:27.611Z,6.32
2022-08-22T08:07:56.134Z,6.68
2022-08-22T08:10:28.676Z,6.28
2022-08-22T08:13:02.256Z,6.22
2022-08-22T08:15:33.584Z,5.50
2022-08-22T08:18:06.568Z,5.20
2022-08-22T08:20:36.522Z,5.57
2022-08-22T08:23:06.976Z,6.15
2022-08-22T08:25:49.215Z,6.03
2022-08-22T08:28:38.233Z,5.07
2022-08-22T08:31:11.127Z,5.20
2022-08-22T08:33:42.115Z,6.30
2022-08-22T08:36:29.119Z,6.32
2022-08-22T08:39:12.500Z,6.28
2022-08-22T08:42:00.465Z,5.30
2022-08-22T08:44:55.260Z,5.68
2022-08-22T08:47:32.895Z,5.90
2022-08-22T08:50:20.850Z,5.22
2022-08-22T08:52:52.793Z,5.40
2022-08-22T08:55:31.020Z,5.20
2022-08-22T08:58:39.775Z,5.72
2022-08-22T09:01:17.065Z,5.05
2022-08-22T09:03:46.806Z,4.85
2022-08-22T09:06:56.781Z,5.07
2022-08-22T09:10:08.309Z,5.03
2022-08-22T09:13:00.119Z,4.45
2022-08-22T09:16:10.035Z,4.32
2022-08-22T09:18:53.016Z,4.80
2022-08-22T09:21:43.369Z,4.47
2022-08-22T09:24:21.180Z,4.25
2022-08-22T09:27:13.648Z,3.95
2022-08-22T09:29:59.733Z,3.60
2022-08-22T09:32:36.448Z,3.45
2022-08-22T09:35:43.724Z,3.65
2022-08-22T09:38:31.099Z,3.78
2022-08-22T09:41:18.161Z,3.75
2022-08-22T09:44:01.437Z,2.60
2022-08-22T09:46:45.778Z,2.95
2022-08-22T09:49:20.382Z,3.03
2022-08-22T09:52:15.432Z,2.97
2022-08-22T09:55:00.271Z,3.35
2022-08-22T09:57:43.930Z,2.80
2022-08-22T10:00:22.104Z,2.83
2022-08-22T10:03:04.670Z,3.00
2022-08-22T10:05:44.935Z,3.05
2022-08-22T10:08:36.945Z,2.78
2022-08-22T10:11:06.662Z,2.85
2022-08-22T10:14:00.680Z,3.17
2022-08-22T10:16:29.942Z,2.85
2022-08-22T10:19:07.212Z,2.70
2022-08-22T10:21:38.851Z,2.42
2022-08-22T10:24:44.073Z,2.60
2022-08-22T10:27:38.060Z,2.40
2022-08-22T10:30:13.260Z,2.88
2022-08-22T10:32:47.555Z,5.03
2022-08-22T10:35:44.238Z,6.05
2022-08-22T10:38:20.501Z,4.78
2022-08-22T10:40:59.561Z,5.05
2022-08-22T10:44:01.228Z,4.80
2022-08-22T10:46:38.921Z,4.82
2022-08-22T10:49:34.465Z,5.15
2022-08-22T10:52:17.287Z,5.85
2022-08-22T10:55:09.940Z,5.97
2022-08-22T10:57:41.858Z,5.95
2022-08-22T11:00:49.974Z,5.93
2022-08-22T11:03:25.113Z,6.05
2022-08-22T11:05:59.251Z,6.32
2022-08-22T11:11:14.203Z,6.32
2022-08-22T11:13:47.192Z,6.20
2022-08-22T11:16:41.881Z,6.30
2022-08-22T11:19:44.777Z,6.18
2022-08-22T11:22:20.364Z,6.68
2022-08-22T11:25:08.914Z,6.78
2022-08-22T11:27:44.971Z,6.45
2022-08-22T11:30:18.655Z,6.35
2022-08-22T11:33:09.586Z,6.35
2022-08-22T11:36:04.630Z,6.10
2022-08-22T11:38:49.794Z,7.00
2022-08-22T11:41:52.287Z,6.40
2022-08-22T11:44:29.776Z,5.97
2022-08-22T11:46:59.797Z,6.22
2022-08-22T11:49:47.028Z,5.38
2022-08-22T11:52:19.734Z,5.40
2022-08-22T11:54:47.848Z,5.10
2022-08-22T11:57:38.856Z,4.78
2022-08-22T12:00:26.546Z,4.95
2022-08-22T12:03:12.611Z,4.68
2022-08-22T12:05:47.051Z,4.10
2022-08-22T12:08:21.353Z,4.03
2022-08-22T12:10:58.187Z,3.88
2022-08-22T12:13:34.766Z,3.85
2022-08-22T12:16:28.168Z,3.60
2022-08-22T12:19:26.007Z,3.70
2022-08-22T12:22:01.016Z,3.72
2022-08-22T12:25:02.743Z,2.45
2022-08-22T12:27:33.613Z,2.60
2022-08-22T12:30:02.124Z,2.50
2022-08-22T12:32:49.167Z,2.53
2022-08-22T12:35:39.316Z,3.30
2022-08-22T12:38:46.384Z,2.92
2022-08-22T12:41:46.753Z,3.13
2022-08-22T12:44:29.794Z,2.83
2022-08-22T12:47:11.154Z,2.60
2022-08-22T12:50:12.682Z,2.22
2022-08-22T12:52:54.216Z,2.15
2022-08-22T12:55:27.036Z,2.08
2022-08-22T12:57:54.971Z,1.77
2022-08-22T13:00:29.398Z,2.20
2022-08-22T13:03:02.031Z,1.55
2022-08-22T13:05:40.710Z,2.38
2022-08-22T13:08:22.830Z,1.65
2022-08-22T13:11:01.571Z,1.60
2022-08-22T13:13:36.942Z,2.00
2022-08-22T13:16:09.551Z,1.60
2022-08-22T13:21:17.156Z,1.70
2022-08-22T13:23:53.427Z,1.70
2022-08-22T13:26:32.813Z,1.40
2022-08-22T13:29:25.665Z,2.10
2022-08-22T13:32:00.515Z,2.15
2022-08-22T13:34:39.839Z,2.10
2022-08-22T13:37:15.108Z,1.85
2022-08-22T13:39:46.964Z,1.73
2022-08-22T13:42:29.763Z,2.45
2022-08-22T13:45:02.987Z,1.77
2022-08-22T13:47:35.852Z,1.77
2022-08-22T13:50:14.881Z,2.10
2022-08-22T13:52:46.120Z,1.90
2022-08-22T13:55:30.296Z,1.75
2022-08-22T13:58:06.780Z,1.73
2022-08-22T14:00:35.817Z,1.90
2022-08-22T14:03:14.067Z,1.67
2022-08-22T14:05:47.131Z,2.33
2022-08-22T14:08:16.335Z,2.22
2022-08-22T14:11:07.589Z,2.00
2022-08-22T14:13:43.466Z,2.00
2022-08-22T14:16:23.374Z,2.10
2022-08-22T14:18:54.808Z,1.70
2022-08-22T14:21:40.339Z,2.15
2022-08-22T14:24:18.884Z,1.83
2022-08-22T14:26:57.975Z,1.98
2022-08-22T14:29:31.848Z,2.17
2022-08-22T14:32:02.692Z,1.98
2022-08-22T14:34:33.232Z,1.90
2022-08-22T14:37:13.093Z,2.15
2022-08-22T14:39:47.096Z,2.30
2022-08-22T14:42:15.325Z,1.90
2022-08-22T14:45:06.704Z,2.00
2022-08-22T14:47:55.010Z,1.90
2022-08-22T14:50:43.692Z,1.85
2022-08-22T14:53:24.971Z,2.20
2022-08-22T14:56:03.213Z,2.13
2022-08-22T14:58:36.485Z,2.22
2022-08-22T15:01:15.285Z,2.28
2022-08-22T15:03:43.885Z,2.30
2022-08-22T15:06:29.476Z,2.78
2022-08-22T15:08:58.339Z,3.03
2022-08-22T15:11:28.232Z,2.70
2022-08-22T15:14:00.122Z,2.73
2022-08-22T15:16:32.090Z,2.83
2022-08-22T15:19:00.453Z,3.00
2022-08-22T15:21:31.700Z,2.83
2022-08-22T15:24:06.633Z,2.80
2022-08-22T15:26:39.810Z,3.40
2022-08-22T15:29:19.069Z,3.17
2022-08-22T15:31:51.651Z,3.58
2022-08-22T15:34:39.544Z,3.00
2022-08-22T15:37:23.851Z,3.30
2022-08-22T15:40:14.836Z,3.75
2022-08-22T15:42:47.189Z,3.65
2022-08-22T15:45:29.517Z,3.42
2022-08-22T15:47:57.053Z,3.63
2022-08-22T15:50:36.708Z,3.38
2022-08-22T15:53:10.277Z,3.20
2022-08-22T15:55:38.197Z,3.40
2022-08-22T15:58:13.175Z,2.95
2022-08-22T16:01:02.633Z,3.33
2022-08-22T16:03:33.149Z,3.58
2022-08-22T16:06:07.490Z,3.47
2022-08-22T16:08:48.389Z,3.30
2022-08-22T16:11:32.248Z,3.25
2022-08-22T16:14:24.712Z,3.58
2022-08-22T16:16:56.148Z,3.45
2022-08-22T16:19:27.292Z,3.60
2022-08-22T16:21:54.347Z,3.40
2022-08-22T16:24:22.375Z,3.72
2022-08-22T16:26:50.373Z,3.17
2022-08-22T16:29:41.904Z,4.05
2022-08-22T16:32:12.113Z,3.67
2022-08-22T16:34:41.138Z,4.20
2022-08-22T16:37:09.882Z,4.18
2022-08-22T16:39:40.924Z,4.10
2022-08-22T16:42:21.864Z,4.00
2022-08-22T16:44:50.550Z,4.60
2022-08-22T16:47:37.205Z,4.65
2022-08-22T16:50:09.503Z,4.90
2022-08-22T16:52:37.723Z,4.82
2022-08-22T16:55:34.393Z,4.75
2022-08-22T16:58:56.973Z,4.97
2022-08-22T17:01:44.623Z,4.40
2022-08-22T17:04:33.728Z,4.90
2022-08-22T17:07:10.773Z,4.60
2022-08-22T17:09:46.695Z,4.65
2022-08-22T17:12:37.300Z,4.97
2022-08-22T17:15:16.069Z,5.05
2022-08-22T17:18:12.277Z,5.40
2022-08-22T17:20:40.893Z,4.97
2022-08-22T17:23:23.413Z,5.53
2022-08-22T17:26:01.212Z,5.07
2022-08-22T17:28:33.946Z,4.70
2022-08-22T17:31:06.093Z,5.40
2022-08-22T17:34:12.901Z,5.68
2022-08-22T17:37:05.074Z,5.43
2022-08-22T17:39:34.418Z,5.40
2022-08-22T17:42:23.470Z,5.18
2022-08-22T17:44:55.832Z,4.82
2022-08-22T17:47:33.589Z,5.35
2022-08-22T17:50:09.006Z,5.90
2022-08-22T17:52:46.967Z,6.20
2022-08-22T17:55:37.019Z,6.40
2022-08-22T17:58:35.697Z,6.00
2022-08-22T18:01:15.385Z,6.38
2022-08-22T18:03:53.315Z,6.18
2022-08-22T18:06:26.576Z,5.60
2022-08-22T18:09:15.490Z,5.45
2022-08-22T18:11:58.403Z,5.82
2022-08-22T18:14:40.269Z,5.95
2022-08-22T18:17:18.918Z,6.25
2022-08-22T18:19:56.494Z,6.40
2022-08-22T18:22:39.973Z,5.78
2022-08-22T18:25:19.088Z,5.95
2022-08-22T18:27:51.197Z,6.07
2022-08-22T18:30:23.463Z,6.10
2022-08-22T18:33:14.263Z,6.55
2022-08-22T18:35:54.454Z,6.53
2022-08-22T18:38:54.439Z,7.63
2022-08-22T18:41:41.417Z,6.25
2022-08-22T18:44:19.804Z,6.00
2022-08-22T18:46:51.997Z,7.10
2022-08-22T18:49:20.674Z,7.80
2022-08-22T18:52:09.222Z,6.90
2022-08-22T18:55:02.930Z,7.57
2022-08-22T18:58:09.867Z,7.00
2022-08-22T19:01:16.815Z,7.10
2022-08-22T19:03:51.847Z,6.50
2022-08-22T19:06:39.196Z,6.18
2022-08-22T19:09:27.399Z,7.78
2022-08-22T19:12:19.545Z,7.18
2022-08-22T19:15:01.562Z,6.60
2022-08-22T19:18:04.215Z,7.65
2022-08-22T19:20:54.629Z,6.07
2022-08-22T19:23:40.530Z,7.20
2022-08-22T19:26:34.987Z,7.03
2022-08-22T19:29:02.283Z,7.28
2022-08-22T19:31:47.322Z,7.30
2022-08-22T19:34:30.482Z,7.53
2022-08-22T19:37:30.947Z,7.97
2022-08-22T19:40:10.213Z,7.80
2022-08-22T19:42:41.829Z,7.85
2022-08-22T19:45:27.188Z,8.00
2022-08-22T19:47:59.643Z,7.00
2022-08-22T19:50:32.943Z,7.47
2022-08-22T19:53:21.442Z,7.63
2022-08-22T19:56:01.259Z,7.95
2022-08-22T19:58:50.469Z,7.13
2022-08-22T20:01:40.942Z,7.72
2022-08-22T20:04:36.844Z,7.10
2022-08-22T20:07:20.553Z,6.93
2022-08-22T20:10:02.868Z,7.90
2022-08-22T20:12:30.010Z,7.07
2022-08-22T20:14:57.491Z,7.90
2022-08-22T20:17:24.558Z,6.80
2022-08-22T20:22:46.606Z,7.63
2022-08-22T20:25:42.256Z,7.18
2022-08-22T20:28:10.327Z,7.55
2022-08-22T20:30:43.297Z,8.05
2022-08-22T20:33:14.766Z,8.02
2022-08-22T20:35:50.891Z,7.97
2022-08-22T20:38:23.290Z,8.20
2022-08-22T20:40:59.547Z,7.88
2022-08-22T20:43:37.025Z,8.27
2022-08-22T20:46:32.717Z,6.97
2022-08-22T20:49:02.388Z,7.68
2022-08-22T20:51:32.346Z,6.43
2022-08-22T20:54:10.225Z,7.57
2022-08-22T20:56:53.364Z,6.70
2022-08-22T20:59:25.432Z,7.18
2022-08-22T21:01:57.988Z,6.80
2022-08-22T21:04:30.535Z,7.28
2022-08-22T21:07:01.917Z,5.97
2022-08-22T21:09:49.322Z,6.40
2022-08-22T21:12:16.641Z,6.10
2022-08-22T21:14:46.852Z,6.35
2022-08-22T21:17:21.365Z,5.80
2022-08-22T21:22:27.120Z,5.45
2022-08-22T21:24:56.743Z,5.45
2022-08-22T21:27:30.536Z,5.45
2022-08-22T21:30:00.033Z,5.38
2022-08-22T21:32:36.654Z,4.68
2022-08-22T21:35:06.334Z,4.45
2022-08-22T21:37:45.996Z,3.78
2022-08-22T21:40:16.352Z,4.20
2022-08-22T21:42:58.023Z,4.97
2022-08-22T21:45:27.767Z,4.90
2022-08-22T21:47:57.403Z,3.97
2022-08-22T21:50:24.515Z,4.63
2022-08-22T21:52:54.879Z,4.43
2022-08-22T21:55:27.267Z,4.20
2022-08-22T21:58:35.768Z,4.13
2022-08-22T22:01:25.079Z,4.80
2022-08-22T22:03:55.380Z,5.00
2022-08-22T22:06:22.436Z,4.28
2022-08-22T22:08:49.663Z,4.70
2022-08-22T22:11:17.723Z,5.35
2022-08-22T22:13:45.222Z,5.78
2022-08-22T22:16:12.708Z,5.40
2022-08-22T22:18:40.987Z,7.10
2022-08-22T22:21:08.615Z,7.82
2022-08-22T22:23:35.737Z,7.75
2022-08-22T22:26:05.618Z,7.85
2022-08-22T22:28:49.129Z,8.18
2022-08-22T22:31:18.630Z,6.95
2022-08-22T22:33:45.979Z,6.43
2022-08-22T22:36:21.762Z,6.30
2022-08-22T22:38:51.540Z,6.95
2022-08-22T22:41:20.418Z,6.15
2022-08-22T22:43:47.504Z,6.03
2022-08-22T22:46:14.572Z,5.63
2022-08-22T22:48:41.571Z,6.25
2022-08-22T22:51:10.868Z,5.70
2022-08-22T22:53:42.803Z,5.40
2022-08-22T22:56:15.898Z,6.10
2022-08-22T22:58:43.617Z,5.60
2022-08-22T23:01:14.305Z,5.55
2022-08-22T23:03:41.791Z,4.82
2022-08-22T23:06:25.848Z,5.38
2022-08-22T23:08:54.506Z,5.25
2022-08-22T23:11:28.819Z,4.80
2022-08-22T23:13:56.763Z,5.03
2022-08-22T23:16:28.162Z,4.55
2022-08-22T23:18:55.722Z,4.55
2022-08-22T23:21:29.778Z,4.30
2022-08-22T23:23:59.041Z,3.92
2022-08-22T23:26:26.545Z,4.03
2022-08-22T23:28:53.980Z,4.50
2022-08-22T23:31:43.555Z,4.68
2022-08-22T23:34:14.349Z,4.43
2022-08-22T23:36:45.447Z,4.57
2022-08-22T23:39:14.967Z,3.78
2022-08-22T23:41:42.611Z,4.45
2022-08-22T23:44:13.565Z,4.13
2022-08-22T23:46:41.572Z,4.07
2022-08-22T23:49:08.824Z,3.10
2022-08-22T23:51:36.203Z,2.47
2022-08-22T23:54:04.196Z,2.15
2022-08-22T23:56:32.933Z,2.03
2022-08-22T23:59:05.762Z,2.78
